createdAt,value
2023-01-20T00:01:31.025Z,57.97
2023-01-20T00:03:58.362Z,54.47
2023-01-20T00:06:27.745Z,59.53
2023-01-20T00:09:00.269Z,60.40
2023-01-20T00:11:27.859Z,58.07
2023-01-20T00:13:55.846Z,59.80
2023-01-20T00:16:22.983Z,55.80
2023-01-20T00:18:49.441Z,58.40
2023-01-20T00:21:18.538Z,51.50
2023-01-20T00:23:46.177Z,52.57
2023-01-20T00:26:16.075Z,59.53
2023-01-20T00:28:43.382Z,58.77
2023-01-20T00:31:21.005Z,59.03
2023-01-20T00:33:49.137Z,57.33
2023-01-20T00:36:17.281Z,53.53
2023-01-20T00:38:44.139Z,57.90
2023-01-20T00:41:10.669Z,55.33
2023-01-20T00:43:37.402Z,58.63
2023-01-20T00:46:05.199Z,56.40
2023-01-20T00:48:32.544Z,57.67
2023-01-20T00:50:59.219Z,54.63
2023-01-20T00:53:25.966Z,56.80
2023-01-20T00:55:52.624Z,55.13
2023-01-20T00:58:19.063Z,56.67
2023-01-20T01:00:52.783Z,50.57
2023-01-20T01:03:19.327Z,54.33
2023-01-20T01:05:46.068Z,56.10
2023-01-20T01:08:13.154Z,49.63
2023-01-20T01:10:40.783Z,53.80
2023-01-20T01:13:08.059Z,52.17
2023-01-20T01:15:34.543Z,53.20
2023-01-20T01:18:03.185Z,53.30
2023-01-20T01:20:29.782Z,55.13
2023-01-20T01:22:56.349Z,50.23
2023-01-20T01:25:22.921Z,52.47
2023-01-20T01:27:49.366Z,50.63
2023-01-20T01:30:15.837Z,50.53
2023-01-20T01:32:42.367Z,49.33
2023-01-20T01:35:09.055Z,50.73
2023-01-20T01:37:35.533Z,54.60
2023-01-20T01:40:02.429Z,47.93
2023-01-20T01:42:29.342Z,49.37
2023-01-20T01:45:11.669Z,53.40
2023-01-20T01:47:42.587Z,51.40
2023-01-20T01:50:13.543Z,49.57
2023-01-20T01:52:44.369Z,47.80
2023-01-20T01:55:11.792Z,51.47
2023-01-20T01:57:38.445Z,48.97
2023-01-20T02:00:07.112Z,51.33
2023-01-20T02:02:41.390Z,46.90
2023-01-20T02:05:08.371Z,49.83
2023-01-20T02:07:36.124Z,49.97
2023-01-20T02:10:03.274Z,50.63
2023-01-20T02:12:29.813Z,52.27
2023-01-20T02:15:02.053Z,52.33
2023-01-20T02:17:47.042Z,47.17
2023-01-20T02:20:37.072Z,48.27
2023-01-20T02:23:03.482Z,51.63
2023-01-20T02:26:07.629Z,51.70
2023-01-20T02:29:20.141Z,53.47
2023-01-20T02:32:04.518Z,48.20
2023-01-20T02:34:40.351Z,49.17
2023-01-20T02:37:13.531Z,49.53
2023-01-20T02:40:00.481Z,47.33
2023-01-20T02:42:39.450Z,46.73
2023-01-20T02:45:18.289Z,47.37
2023-01-20T02:48:44.311Z,51.17
2023-01-20T02:51:21.587Z,48.43
2023-01-20T02:53:52.283Z,48.10
2023-01-20T02:56:22.963Z,48.87
2023-01-20T02:58:54.088Z,46.87
2023-01-20T03:01:26.460Z,49.27
2023-01-20T03:03:58.217Z,50.13
2023-01-20T03:06:30.163Z,44.73
2023-01-20T03:08:59.794Z,49.30
2023-01-20T03:11:26.961Z,45.00
2023-01-20T03:14:02.554Z,46.77
2023-01-20T03:16:30.179Z,47.80
2023-01-20T03:18:56.684Z,48.97
2023-01-20T03:21:23.802Z,50.30
2023-01-20T03:23:57.490Z,51.40
2023-01-20T03:26:23.973Z,53.97
2023-01-20T03:28:50.539Z,44.27
2023-01-20T03:31:34.699Z,47.80
2023-01-20T03:34:06.459Z,48.43
2023-01-20T03:36:34.121Z,50.67
2023-01-20T03:39:01.066Z,54.60
2023-01-20T03:41:45.016Z,47.00
2023-01-20T03:44:19.003Z,46.60
2023-01-20T03:47:08.601Z,50.03
2023-01-20T03:49:38.091Z,51.17
2023-01-20T03:52:13.503Z,49.43
2023-01-20T03:54:52.324Z,53.73
2023-01-20T03:57:24.927Z,60.47
2023-01-20T03:59:52.709Z,49.03
2023-01-20T04:02:20.836Z,50.93
2023-01-20T04:04:49.480Z,49.10
2023-01-20T04:07:22.675Z,49.90
2023-01-20T04:09:54.252Z,50.63
2023-01-20T04:12:20.673Z,48.10
2023-01-20T04:14:47.145Z,48.27
2023-01-20T04:17:13.897Z,51.13
2023-01-20T04:19:40.366Z,48.73
2023-01-20T04:22:20.124Z,48.07
2023-01-20T04:25:20.555Z,51.10
2023-01-20T04:27:46.990Z,50.23
2023-01-20T04:30:14.283Z,50.50
2023-01-20T04:32:40.880Z,51.53
2023-01-20T04:35:07.549Z,52.73
2023-01-20T04:37:34.072Z,58.03
2023-01-20T04:40:00.458Z,53.43
2023-01-20T04:42:28.179Z,53.33
2023-01-20T04:44:54.586Z,57.47
2023-01-20T04:47:20.997Z,48.07
2023-01-20T04:49:47.393Z,49.83
2023-01-20T04:52:13.944Z,50.63
2023-01-20T04:54:40.371Z,46.93
2023-01-20T04:57:06.982Z,51.63
2023-01-20T04:59:33.516Z,51.23
2023-01-20T05:02:00.047Z,47.50
2023-01-20T05:04:26.472Z,53.77
2023-01-20T05:06:52.902Z,49.13
2023-01-20T05:09:19.415Z,50.20
2023-01-20T05:11:45.824Z,46.07
2023-01-20T05:14:13.472Z,49.90
2023-01-20T05:16:39.973Z,47.53
2023-01-20T05:19:06.493Z,48.37
2023-01-20T05:21:33.341Z,50.93
2023-01-20T05:23:59.766Z,51.83
2023-01-20T05:26:26.363Z,49.10
2023-01-20T05:28:53.131Z,49.77
2023-01-20T05:31:19.637Z,46.47
2023-01-20T05:33:46.202Z,48.77
2023-01-20T05:36:12.823Z,44.00
2023-01-20T05:38:39.885Z,42.70
2023-01-20T05:41:08.466Z,45.63
2023-01-20T05:43:34.974Z,41.60
2023-01-20T05:46:03.518Z,45.73
2023-01-20T05:48:30.134Z,46.23
2023-01-20T05:50:56.578Z,49.67
2023-01-20T05:53:23.711Z,48.23
2023-01-20T05:55:50.147Z,44.67
2023-01-20T05:58:16.640Z,47.03
2023-01-20T06:00:43.112Z,44.77
2023-01-20T06:03:09.615Z,50.37
2023-01-20T06:05:36.093Z,52.13
2023-01-20T06:08:02.510Z,47.13
2023-01-20T06:10:28.957Z,44.67
2023-01-20T06:12:55.905Z,42.47
2023-01-20T06:15:23.892Z,46.93
2023-01-20T06:17:51.138Z,44.87
2023-01-20T06:20:18.368Z,55.37
2023-01-20T06:22:45.006Z,47.37
2023-01-20T06:25:11.506Z,53.73
2023-01-20T06:27:38.028Z,51.47
2023-01-20T06:30:06.179Z,46.37
2023-01-20T06:32:32.608Z,44.73
2023-01-20T06:34:59.009Z,49.33
2023-01-20T06:37:25.456Z,44.70
2023-01-20T06:39:51.861Z,43.27
2023-01-20T06:42:18.308Z,46.93
2023-01-20T06:44:44.716Z,43.10
2023-01-20T06:47:11.316Z,49.53
2023-01-20T06:49:37.831Z,45.70
2023-01-20T06:52:04.323Z,65.13
2023-01-20T06:54:30.875Z,58.97
2023-01-20T06:56:57.332Z,53.63
2023-01-20T06:59:23.714Z,57.73
2023-01-20T07:01:50.620Z,52.20
2023-01-20T07:04:17.047Z,49.57
2023-01-20T07:06:43.597Z,46.90
2023-01-20T07:09:12.002Z,44.70
2023-01-20T07:11:38.955Z,46.30
2023-01-20T07:14:06.833Z,46.93
2023-01-20T07:16:34.299Z,44.90
2023-01-20T07:19:00.811Z,47.17
2023-01-20T07:21:28.608Z,46.60
2023-01-20T07:23:55.594Z,49.33
2023-01-20T07:26:26.315Z,52.33
2023-01-20T07:28:52.818Z,45.77
2023-01-20T07:31:22.335Z,51.97
2023-01-20T07:33:49.600Z,47.43
2023-01-20T07:36:16.783Z,51.20
2023-01-20T07:38:46.544Z,59.03
2023-01-20T07:41:16.347Z,58.97
2023-01-20T07:43:44.389Z,59.53
2023-01-20T07:46:11.730Z,56.00
2023-01-20T07:48:39.668Z,59.87
2023-01-20T07:51:09.079Z,58.83
2023-01-20T07:53:39.166Z,60.20
2023-01-20T07:56:07.608Z,55.67
2023-01-20T07:58:34.942Z,55.43
2023-01-20T08:01:28.871Z,53.93
2023-01-20T08:03:56.254Z,53.90
2023-01-20T08:06:24.791Z,53.17
2023-01-20T08:08:51.716Z,56.13
2023-01-20T08:11:20.635Z,53.20
2023-01-20T08:13:47.061Z,55.53
2023-01-20T08:16:15.819Z,54.77
2023-01-20T08:18:42.866Z,50.10
2023-01-20T08:21:18.543Z,52.90
2023-01-20T08:23:45.051Z,55.47
2023-01-20T08:26:11.608Z,52.00
2023-01-20T08:28:38.069Z,51.60
2023-01-20T08:31:12.842Z,53.47
2023-01-20T08:33:42.434Z,56.40
2023-01-20T08:36:13.830Z,61.03
2023-01-20T08:38:41.398Z,63.57
2023-01-20T08:41:09.742Z,59.00
2023-01-20T08:43:36.456Z,60.77
2023-01-20T08:46:06.993Z,53.17
2023-01-20T08:48:35.170Z,56.77
2023-01-20T08:51:09.937Z,63.50
2023-01-20T08:53:36.524Z,65.27
2023-01-20T08:56:04.457Z,61.90
2023-01-20T08:58:31.419Z,56.63
2023-01-20T09:00:58.314Z,53.37
2023-01-20T09:03:25.074Z,55.10
2023-01-20T09:05:51.645Z,51.50
2023-01-20T09:08:19.417Z,55.10
2023-01-20T09:10:46.454Z,50.33
2023-01-20T09:13:13.003Z,51.97
2023-01-20T09:15:39.522Z,52.93
2023-01-20T09:18:06.171Z,51.33
2023-01-20T09:20:32.962Z,57.73
2023-01-20T09:23:03.251Z,50.23
2023-01-20T09:25:29.769Z,49.57
2023-01-20T09:27:56.187Z,53.97
2023-01-20T09:30:22.667Z,51.53
2023-01-20T09:32:53.024Z,50.37
2023-01-20T09:35:19.507Z,48.63
2023-01-20T09:38:04.432Z,46.93
2023-01-20T09:41:07.229Z,48.97
2023-01-20T09:43:55.188Z,43.83
2023-01-20T09:46:31.420Z,51.90
2023-01-20T09:49:24.442Z,51.20
2023-01-20T09:52:31.469Z,47.10
2023-01-20T09:55:15.712Z,50.17
2023-01-20T09:57:48.822Z,50.60
2023-01-20T10:00:21.807Z,47.93
2023-01-20T10:02:52.907Z,50.60
2023-01-20T10:05:32.864Z,48.70
2023-01-20T10:08:07.032Z,50.93
2023-01-20T10:10:43.134Z,50.43
2023-01-20T10:13:20.261Z,47.60
2023-01-20T10:15:57.047Z,47.17
2023-01-20T10:18:30.005Z,49.97
2023-01-20T10:21:12.368Z,49.00
2023-01-20T10:23:52.217Z,45.23
2023-01-20T10:26:31.993Z,50.63
2023-01-20T10:29:03.959Z,48.43
2023-01-20T10:31:38.692Z,48.20
2023-01-20T10:34:15.790Z,52.00
2023-01-20T10:36:45.968Z,51.90
2023-01-20T10:39:27.227Z,49.13
2023-01-20T10:42:17.906Z,52.10
2023-01-20T10:44:46.616Z,45.53
2023-01-20T10:47:29.496Z,45.00
2023-01-20T10:50:23.743Z,45.13
2023-01-20T10:52:50.534Z,48.80
2023-01-20T10:55:28.222Z,53.40
2023-01-20T10:58:00.481Z,46.70
2023-01-20T11:00:33.391Z,44.37
2023-01-20T11:03:02.376Z,43.23
2023-01-20T11:05:38.061Z,51.03
2023-01-20T11:08:26.639Z,49.80
2023-01-20T11:10:56.712Z,46.40
2023-01-20T11:13:23.252Z,43.97
2023-01-20T11:15:53.501Z,41.50
2023-01-20T11:18:26.395Z,46.30
2023-01-20T11:21:05.595Z,42.10
2023-01-20T11:23:45.995Z,44.13
2023-01-20T11:26:32.389Z,40.97
2023-01-20T11:29:00.083Z,40.33
2023-01-20T11:31:41.243Z,38.20
2023-01-20T11:34:33.801Z,40.40
2023-01-20T11:37:03.375Z,38.97
2023-01-20T11:39:35.158Z,43.60
2023-01-20T11:42:16.072Z,39.13
2023-01-20T11:44:50.365Z,42.40
2023-01-20T11:47:24.991Z,41.20
2023-01-20T11:50:03.915Z,40.07
2023-01-20T11:52:33.813Z,33.87
2023-01-20T11:55:10.759Z,38.83
2023-01-20T11:57:38.972Z,39.50
2023-01-20T12:00:30.268Z,38.67
2023-01-20T12:03:00.460Z,36.03
2023-01-20T12:05:53.966Z,46.17
2023-01-20T12:08:25.062Z,39.47
2023-01-20T12:10:52.068Z,43.97
2023-01-20T12:13:22.949Z,40.43
2023-01-20T12:15:54.988Z,37.57
2023-01-20T12:18:36.967Z,41.27
2023-01-20T12:21:11.596Z,37.40
2023-01-20T12:23:48.464Z,36.20
2023-01-20T12:26:20.973Z,38.47
2023-01-20T12:29:14.699Z,37.07
2023-01-20T12:31:41.127Z,39.80
2023-01-20T12:34:16.156Z,41.73
2023-01-20T12:37:10.211Z,36.93
2023-01-20T12:39:58.137Z,34.33
2023-01-20T12:42:48.764Z,43.83
2023-01-20T12:45:24.109Z,38.53
2023-01-20T12:48:12.716Z,35.30
2023-01-20T12:50:54.962Z,37.47
2023-01-20T12:53:27.218Z,35.60
2023-01-20T12:56:28.509Z,34.47
2023-01-20T12:59:17.308Z,35.97
2023-01-20T13:02:05.650Z,34.47
2023-01-20T13:05:09.081Z,31.20
2023-01-20T13:07:50.847Z,33.83
2023-01-20T13:10:36.985Z,30.17
2023-01-20T13:13:12.258Z,31.00
2023-01-20T13:15:46.034Z,31.80
2023-01-20T13:18:21.965Z,28.47
2023-01-20T13:20:49.110Z,28.77
2023-01-20T13:23:20.468Z,26.90
2023-01-20T13:25:47.505Z,32.00
2023-01-20T13:28:20.920Z,31.17
2023-01-20T13:30:54.119Z,28.37
2023-01-20T13:33:40.112Z,27.60
2023-01-20T13:36:14.698Z,32.53
2023-01-20T13:38:41.119Z,30.47
2023-01-20T13:41:09.993Z,27.60
2023-01-20T13:43:46.831Z,26.73
2023-01-20T13:46:15.022Z,27.30
2023-01-20T13:49:23.147Z,25.33
2023-01-20T13:51:49.602Z,27.27
2023-01-20T13:54:25.172Z,26.13
2023-01-20T13:56:52.480Z,30.33
2023-01-20T13:59:18.878Z,30.10
2023-01-20T14:01:45.294Z,32.33
2023-01-20T14:04:19.536Z,28.63
2023-01-20T14:06:51.841Z,28.47
2023-01-20T14:09:23.831Z,26.23
2023-01-20T14:11:52.474Z,26.63
2023-01-20T14:14:28.513Z,28.13
2023-01-20T14:16:57.208Z,27.77
2023-01-20T14:19:29.838Z,29.33
2023-01-20T14:22:04.687Z,29.97
2023-01-20T14:24:37.169Z,29.43
2023-01-20T14:27:23.386Z,27.77
2023-01-20T14:29:51.957Z,28.53
2023-01-20T14:32:28.570Z,26.10
2023-01-20T14:34:56.014Z,29.23
2023-01-20T14:37:25.088Z,24.43
2023-01-20T14:39:51.983Z,28.93
2023-01-20T14:42:21.167Z,26.73
2023-01-20T14:44:49.254Z,27.37
2023-01-20T14:47:16.090Z,27.77
2023-01-20T14:49:43.542Z,27.93
2023-01-20T14:52:21.486Z,27.07
2023-01-20T14:54:51.931Z,30.23
2023-01-20T14:57:40.732Z,25.93
2023-01-20T15:00:16.978Z,25.00
2023-01-20T15:02:55.032Z,25.93
2023-01-20T15:05:33.990Z,27.47
2023-01-20T15:08:26.067Z,24.97
2023-01-20T15:11:21.549Z,27.90
2023-01-20T15:14:00.726Z,25.90
2023-01-20T15:16:41.712Z,27.03
2023-01-20T15:19:34.632Z,26.00
2023-01-20T15:22:17.341Z,26.53
2023-01-20T15:24:47.223Z,26.40
2023-01-20T15:27:23.505Z,25.27
2023-01-20T15:30:13.011Z,23.77
2023-01-20T15:32:40.397Z,22.03
2023-01-20T15:35:07.244Z,28.83
2023-01-20T15:37:33.728Z,25.63
2023-01-20T15:40:00.209Z,25.47
2023-01-20T15:42:27.178Z,27.83
2023-01-20T15:44:53.681Z,24.80
2023-01-20T15:47:26.013Z,27.93
2023-01-20T15:49:52.519Z,24.63
2023-01-20T15:52:19.264Z,24.13
2023-01-20T15:54:45.688Z,27.83
2023-01-20T15:57:16.685Z,25.93
2023-01-20T15:59:45.361Z,28.40
2023-01-20T16:02:23.147Z,28.47
2023-01-20T16:04:50.122Z,27.87
2023-01-20T16:07:18.626Z,38.10
2023-01-20T16:09:46.659Z,30.23
2023-01-20T16:12:17.778Z,27.67
2023-01-20T16:14:45.179Z,29.97
2023-01-20T16:17:20.900Z,26.83
2023-01-20T16:19:48.632Z,26.47
2023-01-20T16:22:15.336Z,26.03
2023-01-20T16:24:42.284Z,26.37
2023-01-20T16:27:20.276Z,25.57
2023-01-20T16:29:47.172Z,28.17
2023-01-20T16:32:16.694Z,27.30
2023-01-20T16:34:44.247Z,28.13
2023-01-20T16:37:14.273Z,23.20
2023-01-20T16:39:40.856Z,26.70
2023-01-20T16:42:11.325Z,20.00
2023-01-20T16:44:38.818Z,23.33
2023-01-20T16:47:06.513Z,21.67
2023-01-20T16:49:33.023Z,19.33
2023-01-20T16:51:59.452Z,24.13
2023-01-20T16:54:25.957Z,22.27
2023-01-20T16:56:52.339Z,23.43
2023-01-20T16:59:18.798Z,19.63
2023-01-20T17:01:47.698Z,17.87
2023-01-20T17:04:14.187Z,17.40
2023-01-20T17:06:41.140Z,17.67
2023-01-20T17:09:07.779Z,15.10
2023-01-20T17:11:37.332Z,21.00
2023-01-20T17:14:06.028Z,19.00
2023-01-20T17:16:32.971Z,16.43
2023-01-20T17:19:00.565Z,20.33
2023-01-20T17:21:29.876Z,15.87
2023-01-20T17:23:59.562Z,17.83
2023-01-20T17:26:26.716Z,10.20
2023-01-20T17:28:55.247Z,10.03
2023-01-20T17:31:22.642Z,13.77
2023-01-20T17:33:50.115Z,11.80
2023-01-20T17:36:16.925Z,17.77
2023-01-20T17:38:44.481Z,13.53
2023-01-20T17:41:12.768Z,12.97
2023-01-20T17:43:42.990Z,9.13
2023-01-20T17:46:12.718Z,9.00
2023-01-20T17:48:39.439Z,11.57
2023-01-20T17:51:13.579Z,10.43
2023-01-20T17:53:40.620Z,14.00
2023-01-20T17:56:12.912Z,13.80
2023-01-20T17:58:41.267Z,14.10
2023-01-20T18:01:17.461Z,12.40
2023-01-20T18:03:44.917Z,11.67
2023-01-20T18:06:13.087Z,12.77
2023-01-20T18:08:40.522Z,13.93
2023-01-20T18:11:13.137Z,14.40
2023-01-20T18:13:39.629Z,13.60
2023-01-20T18:16:12.315Z,13.27
2023-01-20T18:18:40.406Z,15.00
2023-01-20T18:21:17.541Z,13.07
2023-01-20T18:23:45.071Z,15.93
2023-01-20T18:26:14.016Z,13.20
2023-01-20T18:28:41.556Z,13.30
2023-01-20T18:31:13.994Z,17.33
2023-01-20T18:33:44.137Z,12.27
2023-01-20T18:36:16.789Z,13.30
2023-01-20T18:38:43.321Z,15.53
2023-01-20T18:41:11.173Z,16.37
2023-01-20T18:43:38.360Z,15.60
2023-01-20T18:46:05.854Z,15.60
2023-01-20T18:48:32.393Z,14.27
2023-01-20T18:51:00.390Z,16.70
2023-01-20T18:53:29.283Z,16.90
2023-01-20T18:56:10.621Z,16.80
2023-01-20T18:58:38.546Z,19.60
2023-01-20T19:01:11.489Z,20.73
2023-01-20T19:03:39.517Z,19.37
2023-01-20T19:06:07.968Z,21.27
2023-01-20T19:08:34.708Z,22.27
2023-01-20T19:11:03.319Z,19.77
2023-01-20T19:13:29.810Z,23.97
2023-01-20T19:15:56.998Z,25.00
2023-01-20T19:18:23.591Z,24.93
2023-01-20T19:20:50.358Z,22.17
2023-01-20T19:23:17.121Z,19.20
2023-01-20T19:25:43.795Z,18.03
2023-01-20T19:28:10.977Z,20.57
2023-01-20T19:30:41.428Z,23.70
2023-01-20T19:33:12.039Z,20.77
2023-01-20T19:35:40.502Z,22.17
2023-01-20T19:38:08.285Z,24.87
2023-01-20T19:40:34.899Z,26.70
2023-01-20T19:43:01.669Z,25.70
2023-01-20T19:45:40.407Z,29.60
2023-01-20T19:48:11.481Z,29.47
2023-01-20T19:50:38.140Z,26.50
2023-01-20T19:53:04.782Z,26.47
2023-01-20T19:55:31.200Z,28.83
2023-01-20T19:57:57.614Z,25.27
2023-01-20T20:00:24.087Z,25.20
2023-01-20T20:02:53.683Z,24.57
2023-01-20T20:05:20.251Z,23.57
2023-01-20T20:07:47.238Z,25.57
2023-01-20T20:10:13.898Z,29.30
2023-01-20T20:12:40.638Z,32.83
2023-01-20T20:15:07.341Z,38.57
2023-01-20T20:17:33.760Z,35.00
2023-01-20T20:20:00.137Z,35.60
2023-01-20T20:22:27.174Z,35.17
2023-01-20T20:24:53.582Z,35.63
2023-01-20T20:27:19.950Z,39.53
2023-01-20T20:29:46.380Z,41.87
2023-01-20T20:32:13.513Z,36.63
2023-01-20T20:34:40.026Z,42.70
2023-01-20T20:37:06.401Z,36.40
2023-01-20T20:39:32.822Z,36.13
2023-01-20T20:41:59.809Z,39.90
2023-01-20T20:44:26.299Z,38.10
2023-01-20T20:46:52.700Z,39.60
2023-01-20T20:49:19.401Z,38.47
2023-01-20T20:51:45.993Z,41.53
2023-01-20T20:54:16.940Z,37.63
2023-01-20T20:56:44.272Z,39.70
2023-01-20T20:59:10.949Z,40.23
2023-01-20T21:01:37.631Z,33.97
2023-01-20T21:04:05.248Z,33.17
2023-01-20T21:06:32.298Z,36.63
2023-01-20T21:08:58.929Z,32.63
2023-01-20T21:11:25.503Z,36.33
2023-01-20T21:13:52.248Z,45.93
2023-01-20T21:16:22.671Z,42.97
2023-01-20T21:18:50.110Z,44.70
2023-01-20T21:21:19.833Z,48.47
2023-01-20T21:23:51.247Z,40.77
2023-01-20T21:26:18.217Z,44.73
2023-01-20T21:28:45.407Z,40.80
2023-01-20T21:31:14.941Z,39.10
2023-01-20T21:33:42.861Z,36.87
2023-01-20T21:36:12.294Z,41.37
2023-01-20T21:38:41.372Z,41.00
2023-01-20T21:41:09.988Z,45.63
2023-01-20T21:43:57.776Z,38.90
2023-01-20T21:46:25.307Z,38.67
2023-01-20T21:49:10.611Z,33.73
2023-01-20T21:51:55.532Z,36.17
2023-01-20T21:54:22.082Z,39.00
2023-01-20T21:56:48.877Z,43.50
2023-01-20T21:59:15.339Z,39.03
2023-01-20T22:01:42.580Z,41.73
2023-01-20T22:04:09.812Z,40.20
2023-01-20T22:06:36.171Z,41.40
2023-01-20T22:09:03.011Z,37.60
2023-01-20T22:11:29.454Z,40.40
2023-01-20T22:13:56.469Z,37.30
2023-01-20T22:16:24.412Z,36.90
2023-01-20T22:18:51.408Z,41.83
2023-01-20T22:21:18.672Z,40.67
2023-01-20T22:23:45.281Z,40.27
2023-01-20T22:26:11.775Z,40.67
2023-01-20T22:28:39.885Z,38.73
2023-01-20T22:31:12.566Z,44.80
2023-01-20T22:33:39.765Z,36.90
2023-01-20T22:36:06.694Z,42.27
2023-01-20T22:38:34.059Z,39.47
2023-01-20T22:41:05.805Z,42.40
2023-01-20T22:43:33.771Z,41.87
2023-01-20T22:46:02.206Z,39.50
2023-01-20T22:48:31.247Z,38.13
2023-01-20T22:51:09.331Z,44.03
2023-01-20T22:53:36.376Z,41.83
2023-01-20T22:56:11.781Z,43.00
2023-01-20T22:58:39.024Z,42.50
2023-01-20T23:01:12.253Z,42.63
2023-01-20T23:03:38.935Z,39.47
2023-01-20T23:06:05.517Z,40.17
2023-01-20T23:08:32.744Z,43.60
2023-01-20T23:11:02.286Z,45.07
2023-01-20T23:13:29.960Z,46.50
2023-01-20T23:15:56.946Z,46.53
2023-01-20T23:18:24.609Z,41.80
2023-01-20T23:20:52.717Z,43.60
2023-01-20T23:23:20.996Z,41.37
2023-01-20T23:25:47.921Z,43.87
2023-01-20T23:28:15.037Z,46.70
2023-01-20T23:30:41.552Z,44.23
2023-01-20T23:33:08.935Z,47.70
2023-01-20T23:35:38.830Z,42.00
2023-01-20T23:38:06.731Z,45.17
2023-01-20T23:40:33.867Z,42.43
2023-01-20T23:43:00.476Z,42.23
2023-01-20T23:45:28.802Z,46.03
2023-01-20T23:47:55.560Z,42.50
2023-01-20T23:50:22.051Z,43.83
2023-01-20T23:52:48.483Z,43.97
2023-01-20T23:55:15.156Z,43.47
2023-01-20T23:57:41.589Z,44.73
